sensor_id;sensor_type;location;lat;lon;timestamp;P1;durP1;ratioP1;P2;durP2;ratioP2
13114;SDS011;6623;52.120;8.660;2023-12-20T00:01:28;0.30;;;0.30;;
13114;SDS011;6623;52.120;8.660;2023-12-20T00:03:54;0.27;;;0.23;;
13114;SDS011;6623;52.120;8.660;2023-12-20T00:06:19;0.37;;;0.37;;
13114;SDS011;6623;52.120;8.660;2023-12-20T00:08:45;0.20;;;0.20;;
13114;SDS011;6623;52.120;8.660;2023-12-20T00:11:10;0.23;;;0.23;;
13114;SDS011;6623;52.120;8.660;2023-12-20T00:13:36;0.20;;;0.20;;
13114;SDS011;6623;52.120;8.660;2023-12-20T00:16:01;0.10;;;0.10;;
13114;SDS011;6623;52.120;8.660;2023-12-20T00:18:27;0.23;;;0.20;;
13114;SDS011;6623;52.120;8.660;2023-12-20T00:20:52;0.30;;;0.30;;
13114;SDS011;6623;52.120;8.660;2023-12-20T00:23:18;0.37;;;0.30;;
13114;SDS011;6623;52.120;8.660;2023-12-20T00:25:43;0.20;;;0.20;;
13114;SDS011;6623;52.120;8.660;2023-12-20T00:28:09;0.20;;;0.20;;
13114;SDS011;6623;52.120;8.660;2023-12-20T00:30:34;0.30;;;0.30;;
13114;SDS011;6623;52.120;8.660;2023-12-20T00:33:01;0.20;;;0.20;;
13114;SDS011;6623;52.120;8.660;2023-12-20T00:35:27;0.30;;;0.30;;
13114;SDS011;6623;52.120;8.660;2023-12-20T00:37:52;0.20;;;0.20;;
13114;SDS011;6623;52.120;8.660;2023-12-20T00:40:18;0.33;;;0.33;;
13114;SDS011;6623;52.120;8.660;2023-12-20T00:42:44;0.30;;;0.30;;
13114;SDS011;6623;52.120;8.660;2023-12-20T00:45:11;0.30;;;0.30;;
13114;SDS011;6623;52.120;8.660;2023-12-20T00:47:37;0.30;;;0.30;;
13114;SDS011;6623;52.120;8.660;2023-12-20T00:50:03;0.67;;;0.20;;
13114;SDS011;6623;52.120;8.660;2023-12-20T00:52:28;0.30;;;0.30;;
13114;SDS011;6623;52.120;8.660;2023-12-20T00:54:54;0.30;;;0.30;;
13114;SDS011;6623;52.120;8.660;2023-12-20T00:57:19;0.30;;;0.30;;
13114;SDS011;6623;52.120;8.660;2023-12-20T00:59:45;0.23;;;0.23;;
13114;SDS011;6623;52.120;8.660;2023-12-20T01:02:10;0.13;;;0.13;;
13114;SDS011;6623;52.120;8.660;2023-12-20T01:04:36;0.33;;;0.33;;
13114;SDS011;6623;52.120;8.660;2023-12-20T01:07:01;0.40;;;0.33;;
13114;SDS011;6623;52.120;8.660;2023-12-20T01:09:27;0.30;;;0.30;;
13114;SDS011;6623;52.120;8.660;2023-12-20T01:11:52;0.20;;;0.20;;
13114;SDS011;6623;52.120;8.660;2023-12-20T01:14:18;0.20;;;0.20;;
13114;SDS011;6623;52.120;8.660;2023-12-20T01:16:44;0.20;;;0.20;;
13114;SDS011;6623;52.120;8.660;2023-12-20T01:19:09;0.30;;;0.30;;
13114;SDS011;6623;52.120;8.660;2023-12-20T01:21:34;0.20;;;0.20;;
13114;SDS011;6623;52.120;8.660;2023-12-20T01:24:00;0.30;;;0.23;;
13114;SDS011;6623;52.120;8.660;2023-12-20T01:26:26;0.30;;;0.30;;
13114;SDS011;6623;52.120;8.660;2023-12-20T01:28:51;0.30;;;0.30;;
13114;SDS011;6623;52.120;8.660;2023-12-20T01:31:17;0.30;;;0.30;;
13114;SDS011;6623;52.120;8.660;2023-12-20T01:33:42;0.23;;;0.23;;
13114;SDS011;6623;52.120;8.660;2023-12-20T01:36:08;0.50;;;0.37;;
13114;SDS011;6623;52.120;8.660;2023-12-20T01:38:34;0.30;;;0.30;;
13114;SDS011;6623;52.120;8.660;2023-12-20T01:40:59;0.47;;;0.20;;
13114;SDS011;6623;52.120;8.660;2023-12-20T01:43:25;0.27;;;0.27;;
13114;SDS011;6623;52.120;8.660;2023-12-20T01:45:50;0.20;;;0.20;;
13114;SDS011;6623;52.120;8.660;2023-12-20T01:48:17;0.10;;;0.10;;
13114;SDS011;6623;52.120;8.660;2023-12-20T01:50:43;0.43;;;0.40;;
13114;SDS011;6623;52.120;8.660;2023-12-20T01:53:10;0.23;;;0.23;;
13114;SDS011;6623;52.120;8.660;2023-12-20T01:55:38;0.20;;;0.20;;
13114;SDS011;6623;52.120;8.660;2023-12-20T01:58:05;0.83;;;0.30;;
13114;SDS011;6623;52.120;8.660;2023-12-20T02:00:33;0.20;;;0.20;;
13114;SDS011;6623;52.120;8.660;2023-12-20T02:03:00;0.33;;;0.27;;
13114;SDS011;6623;52.120;8.660;2023-12-20T02:05:27;0.30;;;0.30;;
13114;SDS011;6623;52.120;8.660;2023-12-20T02:07:54;0.30;;;0.30;;
13114;SDS011;6623;52.120;8.660;2023-12-20T02:10:19;0.20;;;0.20;;
13114;SDS011;6623;52.120;8.660;2023-12-20T02:12:45;0.30;;;0.30;;
13114;SDS011;6623;52.120;8.660;2023-12-20T02:15:11;0.20;;;0.20;;
13114;SDS011;6623;52.120;8.660;2023-12-20T02:17:37;0.33;;;0.33;;
13114;SDS011;6623;52.120;8.660;2023-12-20T02:20:04;0.20;;;0.20;;
13114;SDS011;6623;52.120;8.660;2023-12-20T02:22:30;0.20;;;0.20;;
13114;SDS011;6623;52.120;8.660;2023-12-20T02:24:56;0.20;;;0.20;;
13114;SDS011;6623;52.120;8.660;2023-12-20T02:27:22;0.40;;;0.20;;
13114;SDS011;6623;52.120;8.660;2023-12-20T02:29:48;0.20;;;0.20;;
13114;SDS011;6623;52.120;8.660;2023-12-20T02:32:15;0.20;;;0.20;;
13114;SDS011;6623;52.120;8.660;2023-12-20T02:34:42;0.40;;;0.20;;
13114;SDS011;6623;52.120;8.660;2023-12-20T02:37:08;0.20;;;0.20;;
13114;SDS011;6623;52.120;8.660;2023-12-20T02:39:33;0.33;;;0.30;;
13114;SDS011;6623;52.120;8.660;2023-12-20T02:41:59;0.30;;;0.30;;
13114;SDS011;6623;52.120;8.660;2023-12-20T02:44:24;0.50;;;0.30;;
13114;SDS011;6623;52.120;8.660;2023-12-20T02:46:50;0.33;;;0.30;;
13114;SDS011;6623;52.120;8.660;2023-12-20T02:49:15;0.20;;;0.20;;
13114;SDS011;6623;52.120;8.660;2023-12-20T02:51:41;0.20;;;0.20;;
13114;SDS011;6623;52.120;8.660;2023-12-20T02:54:06;0.30;;;0.30;;
13114;SDS011;6623;52.120;8.660;2023-12-20T02:56:32;0.30;;;0.30;;
13114;SDS011;6623;52.120;8.660;2023-12-20T02:58:58;0.30;;;0.30;;
13114;SDS011;6623;52.120;8.660;2023-12-20T03:01:23;0.30;;;0.20;;
13114;SDS011;6623;52.120;8.660;2023-12-20T03:03:49;0.20;;;0.20;;
13114;SDS011;6623;52.120;8.660;2023-12-20T03:06:18;0.20;;;0.20;;
13114;SDS011;6623;52.120;8.660;2023-12-20T03:08:44;0.23;;;0.20;;
13114;SDS011;6623;52.120;8.660;2023-12-20T03:11:10;0.30;;;0.30;;
13114;SDS011;6623;52.120;8.660;2023-12-20T03:13:35;0.30;;;0.20;;
13114;SDS011;6623;52.120;8.660;2023-12-20T03:16:01;0.30;;;0.30;;
13114;SDS011;6623;52.120;8.660;2023-12-20T03:18:33;0.23;;;0.23;;
13114;SDS011;6623;52.120;8.660;2023-12-20T03:20:58;0.83;;;0.33;;
13114;SDS011;6623;52.120;8.660;2023-12-20T03:23:23;0.43;;;0.30;;
13114;SDS011;6623;52.120;8.660;2023-12-20T03:25:49;0.20;;;0.20;;
13114;SDS011;6623;52.120;8.660;2023-12-20T03:28:15;0.20;;;0.20;;
13114;SDS011;6623;52.120;8.660;2023-12-20T03:30:41;0.30;;;0.20;;
13114;SDS011;6623;52.120;8.660;2023-12-20T03:33:06;0.40;;;0.23;;
13114;SDS011;6623;52.120;8.660;2023-12-20T03:35:32;0.30;;;0.30;;
13114;SDS011;6623;52.120;8.660;2023-12-20T03:37:58;0.40;;;0.20;;
13114;SDS011;6623;52.120;8.660;2023-12-20T03:40:25;0.13;;;0.13;;
13114;SDS011;6623;52.120;8.660;2023-12-20T03:42:51;0.33;;;0.30;;
13114;SDS011;6623;52.120;8.660;2023-12-20T03:45:16;0.60;;;0.30;;
13114;SDS011;6623;52.120;8.660;2023-12-20T03:47:42;0.37;;;0.37;;
13114;SDS011;6623;52.120;8.660;2023-12-20T03:50:07;0.27;;;0.27;;
13114;SDS011;6623;52.120;8.660;2023-12-20T03:52:33;0.37;;;0.20;;
13114;SDS011;6623;52.120;8.660;2023-12-20T03:54:58;0.30;;;0.30;;
13114;SDS011;6623;52.120;8.660;2023-12-20T03:57:24;0.10;;;0.10;;
13114;SDS011;6623;52.120;8.660;2023-12-20T03:59:49;0.20;;;0.20;;
13114;SDS011;6623;52.120;8.660;2023-12-20T04:02:15;0.37;;;0.20;;
13114;SDS011;6623;52.120;8.660;2023-12-20T04:04:42;0.23;;;0.23;;
13114;SDS011;6623;52.120;8.660;2023-12-20T04:07:08;0.40;;;0.27;;
13114;SDS011;6623;52.120;8.660;2023-12-20T04:09:34;0.30;;;0.30;;
13114;SDS011;6623;52.120;8.660;2023-12-20T04:11:59;0.47;;;0.30;;
13114;SDS011;6623;52.120;8.660;2023-12-20T04:14:25;0.30;;;0.30;;
13114;SDS011;6623;52.120;8.660;2023-12-20T04:16:50;0.13;;;0.13;;
13114;SDS011;6623;52.120;8.660;2023-12-20T04:19:16;0.50;;;0.30;;
13114;SDS011;6623;52.120;8.660;2023-12-20T04:21:41;0.40;;;0.23;;
13114;SDS011;6623;52.120;8.660;2023-12-20T04:24:07;0.30;;;0.30;;
13114;SDS011;6623;52.120;8.660;2023-12-20T04:26:33;0.30;;;0.30;;
13114;SDS011;6623;52.120;8.660;2023-12-20T04:28:58;0.20;;;0.20;;
13114;SDS011;6623;52.120;8.660;2023-12-20T04:31:24;0.20;;;0.20;;
13114;SDS011;6623;52.120;8.660;2023-12-20T04:33:49;0.20;;;0.20;;
13114;SDS011;6623;52.120;8.660;2023-12-20T04:36:15;0.43;;;0.33;;
13114;SDS011;6623;52.120;8.660;2023-12-20T04:38:40;0.20;;;0.20;;
13114;SDS011;6623;52.120;8.660;2023-12-20T04:41:06;0.57;;;0.30;;
13114;SDS011;6623;52.120;8.660;2023-12-20T04:43:31;0.20;;;0.20;;
13114;SDS011;6623;52.120;8.660;2023-12-20T04:45:57;0.90;;;0.30;;
13114;SDS011;6623;52.120;8.660;2023-12-20T04:48:23;0.40;;;0.20;;
13114;SDS011;6623;52.120;8.660;2023-12-20T04:50:48;0.63;;;0.30;;
13114;SDS011;6623;52.120;8.660;2023-12-20T04:53:13;0.40;;;0.27;;
13114;SDS011;6623;52.120;8.660;2023-12-20T04:55:39;0.50;;;0.27;;
13114;SDS011;6623;52.120;8.660;2023-12-20T04:58:04;0.40;;;0.23;;
13114;SDS011;6623;52.120;8.660;2023-12-20T05:00:30;0.30;;;0.23;;
13114;SDS011;6623;52.120;8.660;2023-12-20T05:02:56;0.40;;;0.20;;
13114;SDS011;6623;52.120;8.660;2023-12-20T05:05:21;0.20;;;0.20;;
13114;SDS011;6623;52.120;8.660;2023-12-20T05:07:47;0.20;;;0.20;;
13114;SDS011;6623;52.120;8.660;2023-12-20T05:10:12;0.80;;;0.40;;
13114;SDS011;6623;52.120;8.660;2023-12-20T05:12:38;1.17;;;0.53;;
13114;SDS011;6623;52.120;8.660;2023-12-20T05:15:05;0.40;;;0.30;;
13114;SDS011;6623;52.120;8.660;2023-12-20T05:17:31;0.40;;;0.20;;
13114;SDS011;6623;52.120;8.660;2023-12-20T05:19:57;0.50;;;0.23;;
13114;SDS011;6623;52.120;8.660;2023-12-20T05:22:22;0.30;;;0.20;;
13114;SDS011;6623;52.120;8.660;2023-12-20T05:24:48;0.40;;;0.20;;
13114;SDS011;6623;52.120;8.660;2023-12-20T05:27:13;0.27;;;0.27;;
13114;SDS011;6623;52.120;8.660;2023-12-20T05:29:39;0.20;;;0.20;;
13114;SDS011;6623;52.120;8.660;2023-12-20T05:32:04;0.60;;;0.37;;
13114;SDS011;6623;52.120;8.660;2023-12-20T05:34:30;0.30;;;0.30;;
13114;SDS011;6623;52.120;8.660;2023-12-20T05:36:57;0.40;;;0.23;;
13114;SDS011;6623;52.120;8.660;2023-12-20T05:39:23;0.20;;;0.20;;
13114;SDS011;6623;52.120;8.660;2023-12-20T05:41:48;1.23;;;0.30;;
13114;SDS011;6623;52.120;8.660;2023-12-20T05:44:14;0.73;;;0.43;;
13114;SDS011;6623;52.120;8.660;2023-12-20T05:46:39;0.30;;;0.20;;
13114;SDS011;6623;52.120;8.660;2023-12-20T05:49:05;0.37;;;0.30;;
13114;SDS011;6623;52.120;8.660;2023-12-20T05:51:31;0.40;;;0.30;;
13114;SDS011;6623;52.120;8.660;2023-12-20T05:53:57;1.63;;;0.30;;
13114;SDS011;6623;52.120;8.660;2023-12-20T05:56:23;0.30;;;0.30;;
13114;SDS011;6623;52.120;8.660;2023-12-20T05:58:48;0.30;;;0.30;;
13114;SDS011;6623;52.120;8.660;2023-12-20T06:01:14;0.30;;;0.30;;
13114;SDS011;6623;52.120;8.660;2023-12-20T06:03:42;0.73;;;0.30;;
13114;SDS011;6623;52.120;8.660;2023-12-20T06:06:08;1.03;;;0.37;;
13114;SDS011;6623;52.120;8.660;2023-12-20T06:08:34;0.40;;;0.30;;
13114;SDS011;6623;52.120;8.660;2023-12-20T06:10:59;0.13;;;0.13;;
13114;SDS011;6623;52.120;8.660;2023-12-20T06:13:25;0.43;;;0.40;;
13114;SDS011;6623;52.120;8.660;2023-12-20T06:15:51;0.40;;;0.10;;
13114;SDS011;6623;52.120;8.660;2023-12-20T06:18:17;0.20;;;0.20;;
13114;SDS011;6623;52.120;8.660;2023-12-20T06:20:42;0.50;;;0.20;;
13114;SDS011;6623;52.120;8.660;2023-12-20T06:23:08;0.37;;;0.30;;
13114;SDS011;6623;52.120;8.660;2023-12-20T06:25:33;0.30;;;0.30;;
13114;SDS011;6623;52.120;8.660;2023-12-20T06:27:59;0.63;;;0.33;;
13114;SDS011;6623;52.120;8.660;2023-12-20T06:30:24;0.73;;;0.23;;
13114;SDS011;6623;52.120;8.660;2023-12-20T06:32:52;0.83;;;0.30;;
13114;SDS011;6623;52.120;8.660;2023-12-20T06:35:18;1.20;;;0.40;;
13114;SDS011;6623;52.120;8.660;2023-12-20T06:37:44;0.50;;;0.30;;
13114;SDS011;6623;52.120;8.660;2023-12-20T06:40:10;1.20;;;0.47;;
13114;SDS011;6623;52.120;8.660;2023-12-20T06:42:36;0.40;;;0.30;;
13114;SDS011;6623;52.120;8.660;2023-12-20T06:45:01;1.13;;;0.47;;
13114;SDS011;6623;52.120;8.660;2023-12-20T06:47:27;0.40;;;0.37;;
13114;SDS011;6623;52.120;8.660;2023-12-20T06:49:52;0.50;;;0.30;;
13114;SDS011;6623;52.120;8.660;2023-12-20T06:52:18;0.87;;;0.40;;
13114;SDS011;6623;52.120;8.660;2023-12-20T06:54:43;0.53;;;0.37;;
13114;SDS011;6623;52.120;8.660;2023-12-20T06:57:09;0.40;;;0.30;;
13114;SDS011;6623;52.120;8.660;2023-12-20T06:59:38;0.57;;;0.30;;
13114;SDS011;6623;52.120;8.660;2023-12-20T07:02:05;0.93;;;0.40;;
13114;SDS011;6623;52.120;8.660;2023-12-20T07:04:30;0.53;;;0.40;;
13114;SDS011;6623;52.120;8.660;2023-12-20T07:06:56;0.40;;;0.30;;
13114;SDS011;6623;52.120;8.660;2023-12-20T07:09:25;1.00;;;0.33;;
13114;SDS011;6623;52.120;8.660;2023-12-20T07:11:51;0.60;;;0.30;;
13114;SDS011;6623;52.120;8.660;2023-12-20T07:14:17;0.67;;;0.37;;
13114;SDS011;6623;52.120;8.660;2023-12-20T07:16:43;0.53;;;0.40;;
13114;SDS011;6623;52.120;8.660;2023-12-20T07:19:09;0.30;;;0.30;;
13114;SDS011;6623;52.120;8.660;2023-12-20T07:21:34;0.40;;;0.30;;
13114;SDS011;6623;52.120;8.660;2023-12-20T07:24:00;0.50;;;0.30;;
13114;SDS011;6623;52.120;8.660;2023-12-20T07:26:25;0.50;;;0.33;;
13114;SDS011;6623;52.120;8.660;2023-12-20T07:28:51;0.40;;;0.40;;
13114;SDS011;6623;52.120;8.660;2023-12-20T07:31:17;0.60;;;0.33;;
13114;SDS011;6623;52.120;8.660;2023-12-20T07:33:42;1.03;;;0.50;;
13114;SDS011;6623;52.120;8.660;2023-12-20T07:36:08;0.90;;;0.30;;
13114;SDS011;6623;52.120;8.660;2023-12-20T07:38:33;0.47;;;0.40;;
13114;SDS011;6623;52.120;8.660;2023-12-20T07:40:59;0.43;;;0.40;;
13114;SDS011;6623;52.120;8.660;2023-12-20T07:43:24;0.50;;;0.30;;
13114;SDS011;6623;52.120;8.660;2023-12-20T07:45:50;0.60;;;0.30;;
13114;SDS011;6623;52.120;8.660;2023-12-20T07:48:16;1.90;;;0.40;;
13114;SDS011;6623;52.120;8.660;2023-12-20T07:50:41;0.87;;;0.50;;
13114;SDS011;6623;52.120;8.660;2023-12-20T07:53:07;0.23;;;0.20;;
13114;SDS011;6623;52.120;8.660;2023-12-20T07:55:32;0.50;;;0.30;;
13114;SDS011;6623;52.120;8.660;2023-12-20T07:57:59;0.27;;;0.20;;
13114;SDS011;6623;52.120;8.660;2023-12-20T08:00:24;0.50;;;0.30;;
13114;SDS011;6623;52.120;8.660;2023-12-20T08:02:50;0.57;;;0.37;;
13114;SDS011;6623;52.120;8.660;2023-12-20T08:05:15;1.23;;;0.40;;
13114;SDS011;6623;52.120;8.660;2023-12-20T08:07:41;0.53;;;0.40;;
13114;SDS011;6623;52.120;8.660;2023-12-20T08:10:07;0.93;;;0.40;;
13114;SDS011;6623;52.120;8.660;2023-12-20T08:12:32;1.00;;;0.50;;
13114;SDS011;6623;52.120;8.660;2023-12-20T08:14:58;0.60;;;0.40;;
13114;SDS011;6623;52.120;8.660;2023-12-20T08:17:24;0.50;;;0.40;;
13114;SDS011;6623;52.120;8.660;2023-12-20T08:19:50;0.40;;;0.40;;
13114;SDS011;6623;52.120;8.660;2023-12-20T08:22:16;1.67;;;0.40;;
13114;SDS011;6623;52.120;8.660;2023-12-20T08:24:42;1.03;;;0.50;;
13114;SDS011;6623;52.120;8.660;2023-12-20T08:27:07;1.57;;;0.70;;
13114;SDS011;6623;52.120;8.660;2023-12-20T08:29:34;0.90;;;0.50;;
13114;SDS011;6623;52.120;8.660;2023-12-20T08:32:00;0.50;;;0.40;;
13114;SDS011;6623;52.120;8.660;2023-12-20T08:34:26;0.50;;;0.40;;
13114;SDS011;6623;52.120;8.660;2023-12-20T08:36:51;1.00;;;0.40;;
13114;SDS011;6623;52.120;8.660;2023-12-20T08:39:17;1.00;;;0.60;;
13114;SDS011;6623;52.120;8.660;2023-12-20T08:41:42;0.87;;;0.40;;
13114;SDS011;6623;52.120;8.660;2023-12-20T08:44:08;0.83;;;0.50;;
13114;SDS011;6623;52.120;8.660;2023-12-20T08:46:34;1.20;;;0.50;;
13114;SDS011;6623;52.120;8.660;2023-12-20T08:49:00;0.93;;;0.57;;
13114;SDS011;6623;52.120;8.660;2023-12-20T08:51:26;0.60;;;0.40;;
13114;SDS011;6623;52.120;8.660;2023-12-20T08:53:52;1.47;;;0.50;;
13114;SDS011;6623;52.120;8.660;2023-12-20T08:56:17;0.50;;;0.30;;
13114;SDS011;6623;52.120;8.660;2023-12-20T08:58:43;0.90;;;0.40;;
13114;SDS011;6623;52.120;8.660;2023-12-20T09:01:09;1.23;;;0.53;;
13114;SDS011;6623;52.120;8.660;2023-12-20T09:03:35;0.63;;;0.40;;
13114;SDS011;6623;52.120;8.660;2023-12-20T09:06:00;0.93;;;0.40;;
13114;SDS011;6623;52.120;8.660;2023-12-20T09:08:26;1.10;;;0.50;;
13114;SDS011;6623;52.120;8.660;2023-12-20T09:10:51;0.67;;;0.40;;
13114;SDS011;6623;52.120;8.660;2023-12-20T09:13:17;2.10;;;0.67;;
13114;SDS011;6623;52.120;8.660;2023-12-20T09:15:42;1.33;;;0.60;;
13114;SDS011;6623;52.120;8.660;2023-12-20T09:18:08;0.53;;;0.40;;
13114;SDS011;6623;52.120;8.660;2023-12-20T09:20:34;1.40;;;0.60;;
13114;SDS011;6623;52.120;8.660;2023-12-20T09:23:00;0.70;;;0.40;;
13114;SDS011;6623;52.120;8.660;2023-12-20T09:25:25;1.00;;;0.50;;
13114;SDS011;6623;52.120;8.660;2023-12-20T09:27:51;1.17;;;0.60;;
13114;SDS011;6623;52.120;8.660;2023-12-20T09:30:17;1.10;;;0.60;;
13114;SDS011;6623;52.120;8.660;2023-12-20T09:32:43;2.30;;;0.70;;
13114;SDS011;6623;52.120;8.660;2023-12-20T09:35:10;1.00;;;0.70;;
13114;SDS011;6623;52.120;8.660;2023-12-20T09:37:35;0.97;;;0.53;;
13114;SDS011;6623;52.120;8.660;2023-12-20T09:40:01;0.90;;;0.50;;
13114;SDS011;6623;52.120;8.660;2023-12-20T09:42:48;1.17;;;0.50;;
13114;SDS011;6623;52.120;8.660;2023-12-20T09:45:22;1.40;;;0.80;;
13114;SDS011;6623;52.120;8.660;2023-12-20T09:47:48;1.33;;;0.70;;
13114;SDS011;6623;52.120;8.660;2023-12-20T09:50:15;1.40;;;0.70;;
13114;SDS011;6623;52.120;8.660;2023-12-20T09:52:43;0.90;;;0.50;;
13114;SDS011;6623;52.120;8.660;2023-12-20T09:55:10;0.70;;;0.50;;
13114;SDS011;6623;52.120;8.660;2023-12-20T09:57:35;1.60;;;0.67;;
13114;SDS011;6623;52.120;8.660;2023-12-20T10:00:01;1.53;;;0.50;;
13114;SDS011;6623;52.120;8.660;2023-12-20T10:02:27;0.80;;;0.50;;
13114;SDS011;6623;52.120;8.660;2023-12-20T10:04:54;0.97;;;0.50;;
13114;SDS011;6623;52.120;8.660;2023-12-20T10:07:19;0.70;;;0.40;;
13114;SDS011;6623;52.120;8.660;2023-12-20T10:09:45;0.97;;;0.57;;
13114;SDS011;6623;52.120;8.660;2023-12-20T10:12:12;2.40;;;0.60;;
13114;SDS011;6623;52.120;8.660;2023-12-20T10:14:38;1.17;;;0.70;;
13114;SDS011;6623;52.120;8.660;2023-12-20T10:17:04;0.77;;;0.50;;
13114;SDS011;6623;52.120;8.660;2023-12-20T10:19:31;2.00;;;0.50;;
13114;SDS011;6623;52.120;8.660;2023-12-20T10:21:58;1.27;;;0.60;;
13114;SDS011;6623;52.120;8.660;2023-12-20T10:24:24;2.63;;;0.57;;
13114;SDS011;6623;52.120;8.660;2023-12-20T10:27:03;1.10;;;0.53;;
13114;SDS011;6623;52.120;8.660;2023-12-20T10:29:33;1.90;;;0.70;;
13114;SDS011;6623;52.120;8.660;2023-12-20T10:32:01;1.20;;;0.60;;
13114;SDS011;6623;52.120;8.660;2023-12-20T10:34:50;1.13;;;0.60;;
13114;SDS011;6623;52.120;8.660;2023-12-20T10:37:16;1.00;;;0.60;;
13114;SDS011;6623;52.120;8.660;2023-12-20T10:39:47;1.33;;;0.70;;
13114;SDS011;6623;52.120;8.660;2023-12-20T10:42:16;1.97;;;0.70;;
13114;SDS011;6623;52.120;8.660;2023-12-20T10:44:45;1.00;;;0.60;;
13114;SDS011;6623;52.120;8.660;2023-12-20T10:47:11;1.87;;;0.80;;
13114;SDS011;6623;52.120;8.660;2023-12-20T10:49:38;1.40;;;0.70;;
13114;SDS011;6623;52.120;8.660;2023-12-20T10:52:05;1.47;;;0.70;;
13114;SDS011;6623;52.120;8.660;2023-12-20T10:54:31;0.93;;;0.57;;
13114;SDS011;6623;52.120;8.660;2023-12-20T10:56:57;0.83;;;0.50;;
13114;SDS011;6623;52.120;8.660;2023-12-20T10:59:23;1.17;;;0.57;;
13114;SDS011;6623;52.120;8.660;2023-12-20T11:01:50;2.10;;;0.80;;
13114;SDS011;6623;52.120;8.660;2023-12-20T11:04:22;1.40;;;0.60;;
13114;SDS011;6623;52.120;8.660;2023-12-20T11:06:58;1.40;;;0.60;;
13114;SDS011;6623;52.120;8.660;2023-12-20T11:09:37;1.17;;;0.50;;
13114;SDS011;6623;52.120;8.660;2023-12-20T11:12:13;1.33;;;0.50;;
13114;SDS011;6623;52.120;8.660;2023-12-20T11:14:46;2.17;;;0.80;;
13114;SDS011;6623;52.120;8.660;2023-12-20T11:17:14;1.00;;;0.70;;
13114;SDS011;6623;52.120;8.660;2023-12-20T11:22:25;1.23;;;0.60;;
13114;SDS011;6623;52.120;8.660;2023-12-20T11:24:53;1.50;;;0.63;;
13114;SDS011;6623;52.120;8.660;2023-12-20T11:27:19;1.10;;;0.60;;
13114;SDS011;6623;52.120;8.660;2023-12-20T11:29:51;1.90;;;0.63;;
13114;SDS011;6623;52.120;8.660;2023-12-20T11:35:26;1.37;;;0.60;;
13114;SDS011;6623;52.120;8.660;2023-12-20T11:37:45;2.00;;;0.70;;
13114;SDS011;6623;52.120;8.660;2023-12-20T11:40:17;2.63;;;0.60;;
13114;SDS011;6623;52.120;8.660;2023-12-20T11:42:44;2.07;;;0.80;;
13114;SDS011;6623;52.120;8.660;2023-12-20T11:45:13;2.10;;;0.77;;
13114;SDS011;6623;52.120;8.660;2023-12-20T11:47:48;1.27;;;0.80;;
13114;SDS011;6623;52.120;8.660;2023-12-20T11:50:17;1.13;;;0.50;;
13114;SDS011;6623;52.120;8.660;2023-12-20T11:52:43;1.23;;;0.60;;
13114;SDS011;6623;52.120;8.660;2023-12-20T11:55:09;1.07;;;0.60;;
13114;SDS011;6623;52.120;8.660;2023-12-20T11:57:35;1.10;;;0.70;;
13114;SDS011;6623;52.120;8.660;2023-12-20T12:00:01;1.43;;;0.67;;
13114;SDS011;6623;52.120;8.660;2023-12-20T12:02:27;1.17;;;0.73;;
13114;SDS011;6623;52.120;8.660;2023-12-20T12:04:53;1.23;;;0.80;;
13114;SDS011;6623;52.120;8.660;2023-12-20T12:07:18;1.77;;;0.87;;
13114;SDS011;6623;52.120;8.660;2023-12-20T12:09:45;1.73;;;0.80;;
13114;SDS011;6623;52.120;8.660;2023-12-20T12:12:11;1.53;;;0.77;;
13114;SDS011;6623;52.120;8.660;2023-12-20T12:14:37;1.37;;;0.50;;
13114;SDS011;6623;52.120;8.660;2023-12-20T12:17:04;0.60;;;0.40;;
13114;SDS011;6623;52.120;8.660;2023-12-20T12:19:29;1.20;;;0.60;;
13114;SDS011;6623;52.120;8.660;2023-12-20T12:22:10;1.50;;;0.73;;
13114;SDS011;6623;52.120;8.660;2023-12-20T12:24:42;1.70;;;0.70;;
13114;SDS011;6623;52.120;8.660;2023-12-20T12:27:09;1.27;;;0.50;;
13114;SDS011;6623;52.120;8.660;2023-12-20T12:29:35;1.10;;;0.50;;
13114;SDS011;6623;52.120;8.660;2023-12-20T12:32:02;1.30;;;0.70;;
13114;SDS011;6623;52.120;8.660;2023-12-20T12:34:31;1.10;;;0.60;;
13114;SDS011;6623;52.120;8.660;2023-12-20T12:36:57;1.00;;;0.60;;
13114;SDS011;6623;52.120;8.660;2023-12-20T12:39:23;1.30;;;0.83;;
13114;SDS011;6623;52.120;8.660;2023-12-20T12:41:50;1.17;;;0.67;;
13114;SDS011;6623;52.120;8.660;2023-12-20T12:44:16;1.13;;;0.50;;
13114;SDS011;6623;52.120;8.660;2023-12-20T12:46:42;1.17;;;0.60;;
13114;SDS011;6623;52.120;8.660;2023-12-20T12:49:08;1.40;;;0.80;;
13114;SDS011;6623;52.120;8.660;2023-12-20T12:51:34;2.10;;;0.77;;
13114;SDS011;6623;52.120;8.660;2023-12-20T12:53:59;1.20;;;0.60;;
13114;SDS011;6623;52.120;8.660;2023-12-20T12:56:25;2.17;;;0.70;;
13114;SDS011;6623;52.120;8.660;2023-12-20T12:58:50;1.83;;;0.80;;
13114;SDS011;6623;52.120;8.660;2023-12-20T13:01:16;1.50;;;0.67;;
13114;SDS011;6623;52.120;8.660;2023-12-20T13:03:41;1.37;;;0.60;;
13114;SDS011;6623;52.120;8.660;2023-12-20T13:06:07;1.30;;;0.70;;
13114;SDS011;6623;52.120;8.660;2023-12-20T13:08:33;1.43;;;0.50;;
13114;SDS011;6623;52.120;8.660;2023-12-20T13:10:59;1.03;;;0.60;;
13114;SDS011;6623;52.120;8.660;2023-12-20T13:13:26;1.70;;;0.77;;
13114;SDS011;6623;52.120;8.660;2023-12-20T13:15:52;1.60;;;0.70;;
13114;SDS011;6623;52.120;8.660;2023-12-20T13:18:20;0.90;;;0.50;;
13114;SDS011;6623;52.120;8.660;2023-12-20T13:20:46;0.63;;;0.43;;
13114;SDS011;6623;52.120;8.660;2023-12-20T13:23:11;1.20;;;0.50;;
13114;SDS011;6623;52.120;8.660;2023-12-20T13:25:37;1.70;;;0.73;;
13114;SDS011;6623;52.120;8.660;2023-12-20T13:28:03;1.23;;;0.70;;
13114;SDS011;6623;52.120;8.660;2023-12-20T13:30:28;1.03;;;0.60;;
13114;SDS011;6623;52.120;8.660;2023-12-20T13:32:54;1.03;;;0.60;;
13114;SDS011;6623;52.120;8.660;2023-12-20T13:35:20;0.70;;;0.40;;
13114;SDS011;6623;52.120;8.660;2023-12-20T13:37:45;0.80;;;0.60;;
13114;SDS011;6623;52.120;8.660;2023-12-20T13:40:11;1.13;;;0.57;;
13114;SDS011;6623;52.120;8.660;2023-12-20T13:42:37;1.07;;;0.60;;
13114;SDS011;6623;52.120;8.660;2023-12-20T13:45:06;0.80;;;0.53;;
13114;SDS011;6623;52.120;8.660;2023-12-20T13:47:33;0.77;;;0.50;;
13114;SDS011;6623;52.120;8.660;2023-12-20T13:49:59;1.07;;;0.50;;
13114;SDS011;6623;52.120;8.660;2023-12-20T13:52:25;1.53;;;0.50;;
13114;SDS011;6623;52.120;8.660;2023-12-20T13:54:50;1.00;;;0.53;;
13114;SDS011;6623;52.120;8.660;2023-12-20T13:57:16;1.83;;;0.80;;
13114;SDS011;6623;52.120;8.660;2023-12-20T13:59:41;1.30;;;0.70;;
13114;SDS011;6623;52.120;8.660;2023-12-20T14:02:07;1.20;;;0.70;;
13114;SDS011;6623;52.120;8.660;2023-12-20T14:04:33;0.90;;;0.40;;
13114;SDS011;6623;52.120;8.660;2023-12-20T14:06:58;0.80;;;0.60;;
13114;SDS011;6623;52.120;8.660;2023-12-20T14:09:24;1.33;;;0.60;;
13114;SDS011;6623;52.120;8.660;2023-12-20T14:11:49;0.87;;;0.53;;
13114;SDS011;6623;52.120;8.660;2023-12-20T14:14:15;1.23;;;0.60;;
13114;SDS011;6623;52.120;8.660;2023-12-20T14:16:41;0.93;;;0.53;;
13114;SDS011;6623;52.120;8.660;2023-12-20T14:19:09;1.23;;;0.50;;
13114;SDS011;6623;52.120;8.660;2023-12-20T14:21:35;1.57;;;0.60;;
13114;SDS011;6623;52.120;8.660;2023-12-20T14:24:01;1.17;;;0.60;;
13114;SDS011;6623;52.120;8.660;2023-12-20T14:26:26;1.13;;;0.67;;
13114;SDS011;6623;52.120;8.660;2023-12-20T14:28:53;1.63;;;0.70;;
13114;SDS011;6623;52.120;8.660;2023-12-20T14:31:19;0.93;;;0.60;;
13114;SDS011;6623;52.120;8.660;2023-12-20T14:33:44;0.70;;;0.60;;
13114;SDS011;6623;52.120;8.660;2023-12-20T14:36:11;0.63;;;0.50;;
13114;SDS011;6623;52.120;8.660;2023-12-20T14:38:36;1.23;;;0.60;;
13114;SDS011;6623;52.120;8.660;2023-12-20T14:41:02;0.90;;;0.70;;
13114;SDS011;6623;52.120;8.660;2023-12-20T14:43:33;0.70;;;0.50;;
13114;SDS011;6623;52.120;8.660;2023-12-20T14:45:59;1.00;;;0.50;;
13114;SDS011;6623;52.120;8.660;2023-12-20T14:48:24;0.97;;;0.53;;
13114;SDS011;6623;52.120;8.660;2023-12-20T14:50:52;0.70;;;0.50;;
13114;SDS011;6623;52.120;8.660;2023-12-20T14:53:17;1.10;;;0.60;;
13114;SDS011;6623;52.120;8.660;2023-12-20T14:55:43;0.87;;;0.60;;
13114;SDS011;6623;52.120;8.660;2023-12-20T14:58:09;1.03;;;0.60;;
13114;SDS011;6623;52.120;8.660;2023-12-20T15:00:35;1.03;;;0.60;;